Aviation Digital Data Service (ADDS)

Output produced by METARs form (0129 UTC 04 September 2015)
found at http://www.aviationweather.gov/adds/metars/
 
KSEG 040053Z AUTO 00000KT 5SM BR CLR 23/22 A2992 RMK AO2 SLP129 T02280217 PNO $
KSEG 032353Z AUTO 00000KT 4SM BR CLR 24/23 A2990 RMK AO2 SLP123 6//// T02440228 10328 20244 53013 PNO $
KSEG 032253Z AUTO 00000KT 5SM BR CLR 27/24 A2988 RMK AO2 LTG DSNT SE RAB05E29 SLP115 T02670244 PNO $
KSEG 032222Z AUTO 02005KT 5SM -RA SCT060 BKN075 OVC090 27/22 A2987 RMK AO2 LTG DSNT E RAB05 T02720217 PNO $
KSEG 032215Z AUTO 05006KT 2 1/2SM RA SCT060 BKN085 27/21 A2987 RMK AO2 VIS 1 3/4V4 LTG DSNT E RAB05 P0000 T02720211
KSEG 032153Z AUTO 34004KT 9SM VCTS FEW060 29/22 A2987 RMK AO2 LTG DSNT E SLP111 T02940217
KSEG 032127Z AUTO 33003KT 10SM VCTS CLR 31/20 A2987 RMK AO2 LTG DSNT NE AND E T03110200
KSEG 032053Z AUTO 31003KT 10SM CLR 31/19 A2987 RMK AO2 LTG DSNT N AND NE SLP109 T03110194 56014
KSEG 031953Z AUTO 01003KT 10SM CLR 32/19 A2987 RMK AO2 LTG DSNT NE SLP111 T03220189
KSEG 031853Z AUTO VRB03KT 9SM FEW055 33/19 A2989 RMK AO2 SLP119 T03280189
KSEG 031753Z AUTO VRB04KT 10SM CLR 32/18 A2991 RMK AO2 SLP124 T03220183 10322 20200 56015
KSEG 031653Z AUTO 30003KT 10SM CLR 31/19 A2992 RMK AO2 SLP128 T03110189
KSEG 031553Z AUTO 00000KT 10SM CLR 29/19 A2994 RMK AO2 SLP134 T02940194
KSEG 031453Z AUTO 02004KT 9SM CLR 28/20 A2995 RMK AO2 SLP139 T02830200 58001
KSEG 031353Z AUTO 00000KT 6SM HZ CLR 26/21 A2996 RMK AO2 SLP142 T02560206
KSEG 031253Z AUTO 00000KT 4SM HZ CLR 23/20 A2996 RMK AO2 SLP142 T02280200
KSEG 031209Z AUTO 00000KT 3SM BR CLR 21/19 A2995 RMK AO2 T02060189
KSEG 031153Z AUTO 00000KT 2SM BR CLR 20/19 A2996 RMK AO2 SLP141 T02000189 10200 20172 53007
KSEG 031145Z AUTO 00000KT 2SM BR CLR 20/18 A2995 RMK AO2 T02000183
KSEG 031135Z AUTO 00000KT 1 3/4SM BR CLR 19/18 A2995 RMK AO2 T01940183
KSEG 031122Z AUTO 00000KT 1SM BR CLR 18/17 A2995 RMK AO2 T01830172
KSEG 031112Z AUTO 00000KT 1 1/4SM BR CLR 18/17 A2995 RMK AO2 T01780167
KSEG 031101Z AUTO 00000KT 2SM BR CLR 17/17 A2995 RMK AO2 T01720167
KSEG 031053Z AUTO 00000KT 1 3/4SM BR CLR 17/17 A2994 RMK AO2 SLP136 T01720167
KSEG 031051Z AUTO 00000KT 1 1/2SM BR CLR 17/17 A2994 RMK AO2
KSEG 030953Z AUTO 00000KT 2 1/2SM BR CLR 18/17 A2993 RMK AO2 SLP133 T01780172
KSEG 030853Z AUTO 35003KT 2 1/2SM BR CLR 18/18 A2993 RMK AO2 SLP131 T01830178 55002
KSEG 030753Z AUTO 00000KT 2 1/2SM BR CLR 19/18 A2993 RMK AO2 SLP130 T01890178
KSEG 030742Z AUTO 00000KT 2 1/2SM BR CLR 19/18 A2993 RMK AO2 T01890178
KSEG 030731Z AUTO 00000KT 3SM BR CLR 19/18 A2993 RMK AO2 T01940183
KSEG 030653Z AUTO 00000KT 2 1/2SM BR CLR 19/18 A2992 RMK AO2 SLP129 T01940183
KSEG 030615Z AUTO 00000KT 2 1/2SM BR CLR 19/18 A2993 RMK AO2 T01940183
KSEG 030553Z AUTO 00000KT 3SM BR CLR 19/19 A2994 RMK AO2 SLP133 T01940189 10228 20194 58006
KSEG 030540Z AUTO 00000KT 2 1/2SM BR FEW050 20/19 A2994 RMK AO2 T02000189
KSEG 030453Z AUTO 00000KT 3SM BR FEW050 21/19 A2995 RMK AO2 SLP137 T02060194 403170150
KSEG 030353Z AUTO 00000KT 3SM BR SCT050 BKN070 21/20 A2995 RMK AO2 SLP138 T02110200
KSEG 030253Z AUTO 00000KT 4SM BR FEW055 SCT075 21/20 A2995 RMK AO2 SLP139 T02110200 53008
KSEG 030153Z AUTO 30003KT 5SM BR SCT065 22/21 A2995 RMK AO2 SLP138 T02170206
KSEG 030053Z AUTO 00000KT 5SM BR CLR 22/21 A2993 RMK AO2 SLP132 T02170206
KSEG 022353Z AUTO 00000KT 5SM BR CLR 23/21 A2993 RMK AO2 SLP131 T02280211 10317 20228 56007
KSEG 022253Z AUTO 00000KT 6SM HZ CLR 26/22 A2994 RMK AO2 SLP134 T02610217
KSEG 022153Z AUTO 04004KT 7SM CLR 31/19 A2994 RMK AO2 SLP134 T03060194
KSEG 022053Z AUTO 00000KT 8SM CLR 31/19 A2995 RMK AO2 SLP137 T03110194 56017
KSEG 021953Z AUTO 34007KT 8SM CLR 32/19 A2995 RMK AO2 SLP139 T03170189
KSEG 021853Z AUTO 34007KT 9SM CLR 31/19 A2998 RMK AO2 SLP149 T03110189
KSEG 021753Z AUTO 35007KT 8SM CLR 31/19 A3000 RMK AO2 SLP154 T03060194 10306 20178 58020
KSEG 021653Z AUTO VRB04KT 8SM CLR 29/20 A3002 RMK AO2 SLP163 T02940200
KSEG 021553Z AUTO VRB03KT 7SM CLR 28/20 A3005 RMK AO2 SLP172 T02830200
KSEG 021453Z AUTO VRB03KT 7SM CLR 26/20 A3006 RMK AO2 SLP175 T02610200 58008
KSEG 021353Z AUTO 00000KT 5SM HZ CLR 22/19 A3007 RMK AO2 SLP179 T02220189
KSEG 021332Z AUTO 00000KT 4SM BR SCT002 21/19 A3007 RMK AO2 T02110189